Elkhart, IL (62634)

6:04 AM CDT on August 28, 2016 (GMT -0500)
| | Change Station

Elev -9999 ft 0.00 °N, 0.00 °E | Updated

Mostly Cloudy
Mostly Cloudy
78 °F
Feels Like 78 °F
N
3
Wind Variable Wind from ESE
Gusts mph

Today
High -- | Low -- °F
--% Chance of Precip.
Yesterday
High -- | Low -- °F
Precip. -- in
Pressure 30.14 in
Visibility 4.0 miles
Clouds Scattered Clouds 2000 ft
Scattered Clouds 3500 ft
Mostly Cloudy 7000 ft
Dew Point 74 °F
Humidity 87%
Rainfall --
Snow Depth Not available.
6:22 AM 7:34 PM
Waning Crescent, 16% visible
METAR KAAA 281055Z AUTO 00000KT 4SM -RA SCT020 SCT035 BKN070 23/23 A3014 RMK AO2 LTG DSNT NE AND SW P0004 T02270227
Pressure 30.14 in
Visibility 4.0 miles
Clouds Scattered Clouds 2000 ft
Scattered Clouds 3500 ft
Mostly Cloudy 7000 ft
Dew Point 74 °F
Humidity 87%
Rainfall --
Snow Depth Not available.
6:22 AM 7:34 PM
Waning Crescent, 16% visible
METAR KAAA 281055Z AUTO 00000KT 4SM -RA SCT020 SCT035 BKN070 23/23 A3014 RMK AO2 LTG DSNT NE AND SW P0004 T02270227

10-Day Weather Forecast

Almanac

Astronomy

Aug. 28, 2016 Rise Set
Actual Time
Civil Twilight
Nautical Twilight
Astronomical Twilight
Moon
Length of Visible Light
Length of Day
Tomorrow will be .
, % of the Moon is Illuminated

Today's Extremes

State Highs State Lows

Community

WunderPhotos

Upload Photos

1,935,541 photos uploaded!

WunderBlog® & News

Nearby

Air Quality

  Air Quality AQ Index Pollutant
Not available.

Snow Depth

Station Depth Elevation

Earthquake Activity

City Distance Mag. Time & Date
Minimum magnitude displayed is 2.5.

Coastal Water Temperatures

Place Temperature

Stations

Nearby Weather Stations

Station Location Temp. Windchill Dew Point Humidity Wind Precip. Elev Updated Type
                   

Watches & Warnings

There are currently no watches in effect.